Terminal Aerodrome Forecast
Issued by NWS Upton, NY

Home | Current Version | Previous Version | Text Only | Print | Product List | Glossary On
Versions: 1 2 3 4 5 6 7 8 9 10 11 12 13 14 15 16 17 18 19 20 21 22 23 24 25
000
FTUS41 KOKX 291900 AAA
TAFBDR
TAF AMD
KBDR 291920Z 2919/3018 22012KT P6SM SCT070
     FM300200 VRB03KT P6SM SCT050
     FM301600 19007KT P6SM BKN050=

USA.gov is the U.S. government's official web portal to all federal, state and local government web resources and services.